sensor_id;sensor_type;location;lat;lon;timestamp;pressure;altitude;pressure_sealevel;temperature;humidity
74881;BME280;63427;49.654;6.596;2023-04-01T00:01:02;98058.92;;;10.83;45.10
74881;BME280;63427;49.654;6.596;2023-04-01T00:03:27;98066.66;;;10.08;46.44
74881;BME280;63427;49.654;6.596;2023-04-01T00:05:53;98070.68;;;10.32;46.02
74881;BME280;63427;49.654;6.596;2023-04-01T00:08:18;98070.47;;;10.60;46.60
74881;BME280;63427;49.654;6.596;2023-04-01T00:10:43;98061.32;;;10.37;47.43
74881;BME280;63427;49.654;6.596;2023-04-01T00:13:10;98067.59;;;10.76;45.89
74881;BME280;63427;49.654;6.596;2023-04-01T00:15:35;98056.48;;;10.55;46.17
74881;BME280;63427;49.654;6.596;2023-04-01T00:18:00;98059.76;;;10.24;46.65
74881;BME280;63427;49.654;6.596;2023-04-01T00:20:25;98054.73;;;10.64;45.96
74881;BME280;63427;49.654;6.596;2023-04-01T00:22:51;98051.04;;;10.38;47.33
74881;BME280;63427;49.654;6.596;2023-04-01T00:25:16;98050.14;;;10.48;46.24
74881;BME280;63427;49.654;6.596;2023-04-01T00:27:42;98054.96;;;10.35;46.20
74881;BME280;63427;49.654;6.596;2023-04-01T00:30:09;98042.78;;;10.20;46.49
74881;BME280;63427;49.654;6.596;2023-04-01T00:32:33;98053.00;;;10.66;45.41
74881;BME280;63427;49.654;6.596;2023-04-01T00:34:58;98055.78;;;9.98;46.88
74881;BME280;63427;49.654;6.596;2023-04-01T00:37:24;98051.17;;;10.49;47.08
74881;BME280;63427;49.654;6.596;2023-04-01T00:39:49;98058.55;;;10.38;46.90
74881;BME280;63427;49.654;6.596;2023-04-01T00:42:15;98058.60;;;10.60;46.73
74881;BME280;63427;49.654;6.596;2023-04-01T00:44:41;98057.84;;;10.06;47.78
74881;BME280;63427;49.654;6.596;2023-04-01T00:47:07;98063.94;;;10.82;46.52
74881;BME280;63427;49.654;6.596;2023-04-01T00:49:34;98054.46;;;10.30;46.87
74881;BME280;63427;49.654;6.596;2023-04-01T00:51:59;98052.13;;;10.38;46.39
74881;BME280;63427;49.654;6.596;2023-04-01T00:54:26;98057.58;;;9.89;47.02
74881;BME280;63427;49.654;6.596;2023-04-01T00:56:52;98053.62;;;10.43;46.24
74881;BME280;63427;49.654;6.596;2023-04-01T00:59:18;98053.05;;;10.35;46.68
74881;BME280;63427;49.654;6.596;2023-04-01T01:01:40;98048.33;;;10.74;46.43
74881;BME280;63427;49.654;6.596;2023-04-01T01:04:06;98047.65;;;10.68;46.01
74881;BME280;63427;49.654;6.596;2023-04-01T01:06:39;98051.25;;;10.36;46.19
74881;BME280;63427;49.654;6.596;2023-04-01T01:09:06;98044.44;;;10.07;47.16
74881;BME280;63427;49.654;6.596;2023-04-01T01:11:25;98040.84;;;10.50;46.31
74881;BME280;63427;49.654;6.596;2023-04-01T01:13:54;98043.29;;;10.71;45.85
74881;BME280;63427;49.654;6.596;2023-04-01T01:16:16;98036.39;;;10.96;45.07
74881;BME280;63427;49.654;6.596;2023-04-01T01:18:43;98031.82;;;11.12;44.71
74881;BME280;63427;49.654;6.596;2023-04-01T01:21:16;98028.37;;;10.81;45.12
74881;BME280;63427;49.654;6.596;2023-04-01T01:28:31;98026.88;;;10.35;46.66
74881;BME280;63427;49.654;6.596;2023-04-01T01:30:52;98022.96;;;9.53;47.87
74881;BME280;63427;49.654;6.596;2023-04-01T01:33:24;98018.73;;;10.06;47.21
74881;BME280;63427;49.654;6.596;2023-04-01T01:35:40;98018.10;;;9.79;46.55
74881;BME280;63427;49.654;6.596;2023-04-01T01:38:06;98016.85;;;10.28;45.86
74881;BME280;63427;49.654;6.596;2023-04-01T01:40:31;98021.22;;;9.86;46.17
74881;BME280;63427;49.654;6.596;2023-04-01T01:42:57;98020.60;;;9.95;47.04
74881;BME280;63427;49.654;6.596;2023-04-01T01:45:21;98012.70;;;10.42;45.87
74881;BME280;63427;49.654;6.596;2023-04-01T01:47:45;98023.34;;;10.14;45.95
74881;BME280;63427;49.654;6.596;2023-04-01T01:50:11;98017.61;;;10.83;44.79
74881;BME280;63427;49.654;6.596;2023-04-01T01:52:36;98011.86;;;10.58;44.99
74881;BME280;63427;49.654;6.596;2023-04-01T01:55:02;98021.18;;;10.98;44.75
74881;BME280;63427;49.654;6.596;2023-04-01T01:57:30;98014.66;;;11.01;44.25
74881;BME280;63427;49.654;6.596;2023-04-01T01:59:55;98017.95;;;11.38;43.99
74881;BME280;63427;49.654;6.596;2023-04-01T02:02:18;98017.51;;;11.13;44.29
74881;BME280;63427;49.654;6.596;2023-04-01T02:04:44;98019.90;;;10.31;45.84
74881;BME280;63427;49.654;6.596;2023-04-01T02:07:13;98011.90;;;10.83;45.42
74881;BME280;63427;49.654;6.596;2023-04-01T02:09:35;98014.00;;;10.62;45.64
74881;BME280;63427;49.654;6.596;2023-04-01T02:12:04;98008.87;;;10.50;46.16
74881;BME280;63427;49.654;6.596;2023-04-01T02:14:28;98020.24;;;11.14;45.06
74881;BME280;63427;49.654;6.596;2023-04-01T02:16:54;98017.93;;;10.95;45.38
74881;BME280;63427;49.654;6.596;2023-04-01T02:19:18;98023.26;;;10.77;45.65
74881;BME280;63427;49.654;6.596;2023-04-01T02:21:43;98028.15;;;11.10;46.06
74881;BME280;63427;49.654;6.596;2023-04-01T02:24:11;98025.95;;;11.09;45.66
74881;BME280;63427;49.654;6.596;2023-04-01T02:26:34;98025.25;;;11.33;45.38
74881;BME280;63427;49.654;6.596;2023-04-01T02:29:01;98032.74;;;10.62;46.72
74881;BME280;63427;49.654;6.596;2023-04-01T02:31:25;98036.57;;;10.74;47.13
74881;BME280;63427;49.654;6.596;2023-04-01T02:33:50;98033.22;;;11.25;46.22
74881;BME280;63427;49.654;6.596;2023-04-01T02:36:16;98030.59;;;9.80;49.29
74881;BME280;63427;49.654;6.596;2023-04-01T02:38:43;98028.57;;;9.99;49.19
74881;BME280;63427;49.654;6.596;2023-04-01T02:41:07;98021.78;;;10.48;48.82
74881;BME280;63427;49.654;6.596;2023-04-01T02:43:32;98022.05;;;10.77;47.69
74881;BME280;63427;49.654;6.596;2023-04-01T02:45:58;98025.66;;;9.83;49.28
74881;BME280;63427;49.654;6.596;2023-04-01T02:48:23;98028.19;;;9.90;49.81
74881;BME280;63427;49.654;6.596;2023-04-01T02:50:49;98032.12;;;10.10;49.36
74881;BME280;63427;49.654;6.596;2023-04-01T02:53:14;98026.74;;;9.71;50.29
74881;BME280;63427;49.654;6.596;2023-04-01T02:55:40;98026.85;;;10.20;49.19
74881;BME280;63427;49.654;6.596;2023-04-01T02:58:06;98027.41;;;10.22;48.91
74881;BME280;63427;49.654;6.596;2023-04-01T03:00:31;98018.06;;;9.22;49.87
74881;BME280;63427;49.654;6.596;2023-04-01T03:02:57;98018.95;;;9.94;49.32
74881;BME280;63427;49.654;6.596;2023-04-01T03:05:22;98016.08;;;9.74;49.57
74881;BME280;63427;49.654;6.596;2023-04-01T03:07:48;98020.14;;;10.11;49.36
74881;BME280;63427;49.654;6.596;2023-04-01T03:10:14;98012.52;;;9.54;50.14
74881;BME280;63427;49.654;6.596;2023-04-01T03:12:39;98022.84;;;9.38;50.46
74881;BME280;63427;49.654;6.596;2023-04-01T03:15:05;98005.14;;;9.83;49.58
74881;BME280;63427;49.654;6.596;2023-04-01T03:17:30;98008.62;;;9.87;49.34
74881;BME280;63427;49.654;6.596;2023-04-01T03:19:56;98016.72;;;9.95;49.25
74881;BME280;63427;49.654;6.596;2023-04-01T03:22:21;98015.64;;;9.94;49.10
74881;BME280;63427;49.654;6.596;2023-04-01T03:24:47;98007.82;;;10.58;48.04
74881;BME280;63427;49.654;6.596;2023-04-01T03:27:12;98009.60;;;10.30;48.58
74881;BME280;63427;49.654;6.596;2023-04-01T03:29:38;98006.56;;;9.81;48.70
74881;BME280;63427;49.654;6.596;2023-04-01T03:32:04;98002.58;;;10.13;48.88
74881;BME280;63427;49.654;6.596;2023-04-01T03:34:29;98005.24;;;10.18;49.03
74881;BME280;63427;49.654;6.596;2023-04-01T03:36:54;98002.61;;;9.95;48.54
74881;BME280;63427;49.654;6.596;2023-04-01T03:39:20;98009.36;;;9.72;50.17
74881;BME280;63427;49.654;6.596;2023-04-01T03:41:46;98011.83;;;9.46;49.59
74881;BME280;63427;49.654;6.596;2023-04-01T03:44:11;98012.33;;;9.45;50.40
74881;BME280;63427;49.654;6.596;2023-04-01T03:46:37;98001.86;;;8.84;52.21
74881;BME280;63427;49.654;6.596;2023-04-01T03:49:02;97998.64;;;9.60;50.62
74881;BME280;63427;49.654;6.596;2023-04-01T03:51:28;97991.66;;;10.27;48.81
74881;BME280;63427;49.654;6.596;2023-04-01T03:53:53;97993.39;;;8.84;51.22
74881;BME280;63427;49.654;6.596;2023-04-01T03:56:19;97996.09;;;9.57;51.53
74881;BME280;63427;49.654;6.596;2023-04-01T03:58:45;97986.46;;;9.29;51.60
74881;BME280;63427;49.654;6.596;2023-04-01T04:01:15;97981.66;;;9.26;50.62
74881;BME280;63427;49.654;6.596;2023-04-01T04:03:36;97982.15;;;9.91;49.73
74881;BME280;63427;49.654;6.596;2023-04-01T04:06:01;97989.32;;;9.84;50.81
74881;BME280;63427;49.654;6.596;2023-04-01T04:08:27;97982.00;;;9.72;50.03
74881;BME280;63427;49.654;6.596;2023-04-01T04:10:55;97993.80;;;9.66;50.78
74881;BME280;63427;49.654;6.596;2023-04-01T04:13:18;97987.77;;;9.29;51.07
74881;BME280;63427;49.654;6.596;2023-04-01T04:15:44;97986.17;;;8.84;51.48
74881;BME280;63427;49.654;6.596;2023-04-01T04:18:09;97975.74;;;8.95;51.59
74881;BME280;63427;49.654;6.596;2023-04-01T04:20:34;97975.62;;;9.90;50.57
74881;BME280;63427;49.654;6.596;2023-04-01T04:23:00;97979.49;;;9.69;50.34
74881;BME280;63427;49.654;6.596;2023-04-01T04:25:26;97978.07;;;9.60;50.16
74881;BME280;63427;49.654;6.596;2023-04-01T04:27:51;97983.56;;;9.96;49.45
74881;BME280;63427;49.654;6.596;2023-04-01T04:30:17;97981.47;;;10.22;48.69
74881;BME280;63427;49.654;6.596;2023-04-01T04:32:43;97979.80;;;10.37;48.89
74881;BME280;63427;49.654;6.596;2023-04-01T04:35:08;97989.84;;;10.01;49.87
74881;BME280;63427;49.654;6.596;2023-04-01T04:37:34;97987.64;;;9.89;50.08
74881;BME280;63427;49.654;6.596;2023-04-01T04:39:59;97989.56;;;9.07;51.26
74881;BME280;63427;49.654;6.596;2023-04-01T04:42:25;97995.32;;;9.98;50.58
74881;BME280;63427;49.654;6.596;2023-04-01T04:44:51;97990.71;;;10.26;49.84
74881;BME280;63427;49.654;6.596;2023-04-01T04:47:16;97994.50;;;10.17;49.95
74881;BME280;63427;49.654;6.596;2023-04-01T04:49:41;97997.00;;;10.04;50.34
74881;BME280;63427;49.654;6.596;2023-04-01T04:52:07;98003.53;;;9.55;51.54
74881;BME280;63427;49.654;6.596;2023-04-01T04:54:33;98000.96;;;9.60;51.96
74881;BME280;63427;49.654;6.596;2023-04-01T04:56:58;97999.84;;;9.29;53.40
74881;BME280;63427;49.654;6.596;2023-04-01T04:59:24;98006.94;;;9.40;52.62
74881;BME280;63427;49.654;6.596;2023-04-01T05:01:50;98006.78;;;9.81;52.65
74881;BME280;63427;49.654;6.596;2023-04-01T05:04:15;97999.27;;;9.11;53.56
74881;BME280;63427;49.654;6.596;2023-04-01T05:06:42;98003.66;;;9.63;52.55
74881;BME280;63427;49.654;6.596;2023-04-01T05:09:07;98002.38;;;10.15;51.75
74881;BME280;63427;49.654;6.596;2023-04-01T05:11:32;98003.44;;;10.09;50.87
74881;BME280;63427;49.654;6.596;2023-04-01T05:13:57;98002.61;;;10.33;50.00
74881;BME280;63427;49.654;6.596;2023-04-01T05:16:23;97996.67;;;10.18;49.80
74881;BME280;63427;49.654;6.596;2023-04-01T05:18:48;97997.35;;;10.40;49.18
74881;BME280;63427;49.654;6.596;2023-04-01T05:21:15;98000.44;;;10.44;48.65
74881;BME280;63427;49.654;6.596;2023-04-01T05:23:40;98004.11;;;10.87;48.19
74881;BME280;63427;49.654;6.596;2023-04-01T05:26:06;98001.11;;;9.84;50.23
74881;BME280;63427;49.654;6.596;2023-04-01T05:28:31;98000.37;;;10.77;48.70
74881;BME280;63427;49.654;6.596;2023-04-01T05:30:58;98010.83;;;10.64;48.15
74881;BME280;63427;49.654;6.596;2023-04-01T05:33:26;98005.03;;;11.16;48.00
74881;BME280;63427;49.654;6.596;2023-04-01T05:35:47;98007.98;;;11.10;47.70
74881;BME280;63427;49.654;6.596;2023-04-01T05:38:13;98011.52;;;11.02;48.23
74881;BME280;63427;49.654;6.596;2023-04-01T05:40:38;98007.76;;;10.61;48.10
74881;BME280;63427;49.654;6.596;2023-04-01T05:43:04;98012.12;;;10.65;48.03
74881;BME280;63427;49.654;6.596;2023-04-01T05:45:30;98009.18;;;11.01;47.88
74881;BME280;63427;49.654;6.596;2023-04-01T05:47:55;98012.92;;;11.45;47.34
74881;BME280;63427;49.654;6.596;2023-04-01T05:50:21;98012.94;;;11.41;47.56
74881;BME280;63427;49.654;6.596;2023-04-01T05:52:46;98013.75;;;11.36;47.14
74881;BME280;63427;49.654;6.596;2023-04-01T05:55:12;98020.03;;;10.89;48.25
74881;BME280;63427;49.654;6.596;2023-04-01T05:57:38;98016.51;;;10.60;48.59
74881;BME280;63427;49.654;6.596;2023-04-01T06:00:04;98024.43;;;11.00;48.32
74881;BME280;63427;49.654;6.596;2023-04-01T06:02:28;98022.18;;;11.05;48.28
74881;BME280;63427;49.654;6.596;2023-04-01T06:05:03;98026.21;;;11.25;48.53
74881;BME280;63427;49.654;6.596;2023-04-01T06:07:20;98023.32;;;10.99;48.68
74881;BME280;63427;49.654;6.596;2023-04-01T06:09:46;98023.74;;;10.84;48.61
74881;BME280;63427;49.654;6.596;2023-04-01T06:12:27;98025.12;;;10.58;49.93
74881;BME280;63427;49.654;6.596;2023-04-01T06:14:41;98029.06;;;10.77;49.95
74881;BME280;63427;49.654;6.596;2023-04-01T06:17:15;98032.70;;;10.90;49.74
74881;BME280;63427;49.654;6.596;2023-04-01T06:19:36;98028.99;;;10.60;50.10
74881;BME280;63427;49.654;6.596;2023-04-01T06:22:05;98033.28;;;10.92;49.16
74881;BME280;63427;49.654;6.596;2023-04-01T06:24:30;98035.36;;;11.07;49.09
74881;BME280;63427;49.654;6.596;2023-04-01T06:26:49;98036.93;;;10.94;49.48
74881;BME280;63427;49.654;6.596;2023-04-01T06:29:26;98032.25;;;10.92;49.13
74881;BME280;63427;49.654;6.596;2023-04-01T06:31:46;98033.44;;;11.22;48.66
74881;BME280;63427;49.654;6.596;2023-04-01T06:34:14;98031.55;;;11.62;48.57
74881;BME280;63427;49.654;6.596;2023-04-01T06:36:36;98036.09;;;10.97;49.12
74881;BME280;63427;49.654;6.596;2023-04-01T06:39:02;98031.15;;;11.00;49.42
74881;BME280;63427;49.654;6.596;2023-04-01T06:41:33;98037.37;;;11.14;48.91
74881;BME280;63427;49.654;6.596;2023-04-01T06:43:53;98036.76;;;11.24;48.26
74881;BME280;63427;49.654;6.596;2023-04-01T06:46:14;98038.98;;;11.62;47.63
74881;BME280;63427;49.654;6.596;2023-04-01T06:48:43;98045.56;;;11.98;47.25
74881;BME280;63427;49.654;6.596;2023-04-01T06:51:07;98045.16;;;11.20;48.25
74881;BME280;63427;49.654;6.596;2023-04-01T06:53:29;98054.02;;;11.30;49.09
74881;BME280;63427;49.654;6.596;2023-04-01T06:55:55;98050.23;;;11.42;49.08
74881;BME280;63427;49.654;6.596;2023-04-01T06:58:20;98046.72;;;11.17;48.56
74881;BME280;63427;49.654;6.596;2023-04-01T07:00:44;98046.52;;;11.86;48.49
74881;BME280;63427;49.654;6.596;2023-04-01T07:03:15;98046.33;;;11.40;48.80
74881;BME280;63427;49.654;6.596;2023-04-01T07:05:34;98053.51;;;11.20;48.96
74881;BME280;63427;49.654;6.596;2023-04-01T07:08:00;98058.21;;;10.96;49.73
74881;BME280;63427;49.654;6.596;2023-04-01T07:10:32;98058.08;;;11.33;49.43
74881;BME280;63427;49.654;6.596;2023-04-01T07:12:53;98055.60;;;10.99;49.33
74881;BME280;63427;49.654;6.596;2023-04-01T07:15:19;98056.17;;;11.11;49.71
74881;BME280;63427;49.654;6.596;2023-04-01T07:17:41;98056.89;;;11.57;49.00
74881;BME280;63427;49.654;6.596;2023-04-01T07:20:12;98064.80;;;11.50;48.82
74881;BME280;63427;49.654;6.596;2023-04-01T07:22:33;98063.57;;;11.35;48.84
74881;BME280;63427;49.654;6.596;2023-04-01T07:24:59;98066.63;;;11.74;47.89
74881;BME280;63427;49.654;6.596;2023-04-01T07:27:23;98065.97;;;11.78;47.55
74881;BME280;63427;49.654;6.596;2023-04-01T07:29:47;98075.08;;;11.16;49.36
74881;BME280;63427;49.654;6.596;2023-04-01T07:32:20;98074.41;;;10.90;49.85
74881;BME280;63427;49.654;6.596;2023-04-01T07:34:49;98080.13;;;11.33;49.02
74881;BME280;63427;49.654;6.596;2023-04-01T07:37:09;98083.72;;;11.37;49.58
74881;BME280;63427;49.654;6.596;2023-04-01T07:39:37;98086.43;;;11.09;50.01
74881;BME280;63427;49.654;6.596;2023-04-01T07:42:00;98086.87;;;10.97;49.99
74881;BME280;63427;49.654;6.596;2023-04-01T07:44:27;98094.24;;;11.55;49.07
74881;BME280;63427;49.654;6.596;2023-04-01T07:46:57;98092.46;;;10.85;51.25
74881;BME280;63427;49.654;6.596;2023-04-01T07:49:15;98092.20;;;11.41;49.82
74881;BME280;63427;49.654;6.596;2023-04-01T07:51:43;98091.45;;;11.59;49.19
74881;BME280;63427;49.654;6.596;2023-04-01T07:54:08;98095.06;;;11.70;48.84
74881;BME280;63427;49.654;6.596;2023-04-01T07:56:31;98094.05;;;11.37;49.33
74881;BME280;63427;49.654;6.596;2023-04-01T07:58:59;98097.45;;;11.80;48.68
74881;BME280;63427;49.654;6.596;2023-04-01T08:01:25;98101.87;;;11.90;48.48
74881;BME280;63427;49.654;6.596;2023-04-01T08:03:59;98106.56;;;11.83;48.91
74881;BME280;63427;49.654;6.596;2023-04-01T08:06:14;98109.33;;;11.58;49.07
74881;BME280;63427;49.654;6.596;2023-04-01T08:08:45;98108.74;;;11.69;49.01
74881;BME280;63427;49.654;6.596;2023-04-01T08:11:09;98113.55;;;11.97;48.42
74881;BME280;63427;49.654;6.596;2023-04-01T08:13:34;98107.69;;;12.18;47.93
74881;BME280;63427;49.654;6.596;2023-04-01T08:15:59;98110.19;;;12.00;47.73
74881;BME280;63427;49.654;6.596;2023-04-01T08:18:27;98111.00;;;11.55;48.89
74881;BME280;63427;49.654;6.596;2023-04-01T08:20:47;98115.75;;;12.00;48.53
74881;BME280;63427;49.654;6.596;2023-04-01T08:23:14;98115.95;;;11.74;48.59
74881;BME280;63427;49.654;6.596;2023-04-01T08:25:38;98116.98;;;11.71;49.14
74881;BME280;63427;49.654;6.596;2023-04-01T08:28:04;98122.47;;;12.25;47.96
74881;BME280;63427;49.654;6.596;2023-04-01T08:30:30;98121.57;;;12.07;48.65
74881;BME280;63427;49.654;6.596;2023-04-01T08:32:54;98121.58;;;12.05;48.28
74881;BME280;63427;49.654;6.596;2023-04-01T08:35:24;98125.11;;;11.97;48.12
74881;BME280;63427;49.654;6.596;2023-04-01T08:37:43;98124.86;;;11.62;48.73
74881;BME280;63427;49.654;6.596;2023-04-01T08:40:22;98124.83;;;12.01;47.87
74881;BME280;63427;49.654;6.596;2023-04-01T08:42:47;98129.85;;;12.23;47.61
74881;BME280;63427;49.654;6.596;2023-04-01T08:45:15;98126.83;;;12.37;47.34
74881;BME280;63427;49.654;6.596;2023-04-01T08:47:40;98130.56;;;12.31;47.81
74881;BME280;63427;49.654;6.596;2023-04-01T08:50:02;98130.71;;;12.06;48.34
74881;BME280;63427;49.654;6.596;2023-04-01T08:52:26;98126.75;;;12.73;47.02
74881;BME280;63427;49.654;6.596;2023-04-01T08:54:49;98126.73;;;11.97;48.48
74881;BME280;63427;49.654;6.596;2023-04-01T08:57:13;98137.17;;;12.11;48.81
74881;BME280;63427;49.654;6.596;2023-04-01T08:59:42;98135.04;;;12.47;47.58
74881;BME280;63427;49.654;6.596;2023-04-01T09:04:32;98128.50;;;12.69;46.83
74881;BME280;63427;49.654;6.596;2023-04-01T09:06:56;98134.55;;;11.76;47.83
74881;BME280;63427;49.654;6.596;2023-04-01T09:09:22;98133.27;;;12.11;47.04
74881;BME280;63427;49.654;6.596;2023-04-01T09:14:21;98139.46;;;12.39;47.51
74881;BME280;63427;49.654;6.596;2023-04-01T09:21:37;98143.13;;;11.95;48.25
74881;BME280;63427;49.654;6.596;2023-04-01T09:23:58;98141.23;;;11.98;48.87
74881;BME280;63427;49.654;6.596;2023-04-01T09:26:29;98145.25;;;12.16;47.42
74881;BME280;63427;49.654;6.596;2023-04-01T09:28:44;98142.11;;;12.41;47.49
74881;BME280;63427;49.654;6.596;2023-04-01T09:31:16;98143.50;;;12.04;47.27
74881;BME280;63427;49.654;6.596;2023-04-01T09:33:46;98153.14;;;12.32;47.37
74881;BME280;63427;49.654;6.596;2023-04-01T09:36:03;98149.68;;;12.26;46.86
74881;BME280;63427;49.654;6.596;2023-04-01T09:38:22;98153.64;;;12.04;47.48
74881;BME280;63427;49.654;6.596;2023-04-01T09:40:53;98154.50;;;12.45;47.22
74881;BME280;63427;49.654;6.596;2023-04-01T09:43:24;98155.98;;;12.07;45.92
74881;BME280;63427;49.654;6.596;2023-04-01T09:45:43;98159.22;;;11.92;46.28
74881;BME280;63427;49.654;6.596;2023-04-01T09:48:11;98158.20;;;12.20;46.68
74881;BME280;63427;49.654;6.596;2023-04-01T09:50:34;98165.28;;;12.48;45.77
74881;BME280;63427;49.654;6.596;2023-04-01T09:52:57;98172.12;;;12.32;47.02
74881;BME280;63427;49.654;6.596;2023-04-01T10:00:26;98178.43;;;12.74;46.69
74881;BME280;63427;49.654;6.596;2023-04-01T10:07:45;98179.88;;;12.19;46.83
74881;BME280;63427;49.654;6.596;2023-04-01T10:12:38;98184.42;;;12.26;46.73
74881;BME280;63427;49.654;6.596;2023-04-01T10:17:21;98183.77;;;12.82;45.34
74881;BME280;63427;49.654;6.596;2023-04-01T10:22:12;98195.49;;;12.53;45.65
74881;BME280;63427;49.654;6.596;2023-04-01T10:24:35;98194.75;;;12.82;45.51
74881;BME280;63427;49.654;6.596;2023-04-01T10:27:06;98192.14;;;12.31;46.66
74881;BME280;63427;49.654;6.596;2023-04-01T10:36:43;98193.07;;;12.56;45.58
74881;BME280;63427;49.654;6.596;2023-04-01T10:39:12;98198.49;;;12.55;45.92
74881;BME280;63427;49.654;6.596;2023-04-01T10:41:42;98192.04;;;13.03;45.35
74881;BME280;63427;49.654;6.596;2023-04-01T10:43:57;98189.12;;;12.61;44.94
74881;BME280;63427;49.654;6.596;2023-04-01T10:46:21;98192.01;;;12.80;45.06
74881;BME280;63427;49.654;6.596;2023-04-01T10:48:52;98194.45;;;12.68;45.30
74881;BME280;63427;49.654;6.596;2023-04-01T10:51:15;98199.84;;;12.91;44.96
74881;BME280;63427;49.654;6.596;2023-04-01T10:53:37;98195.28;;;12.77;44.93
74881;BME280;63427;49.654;6.596;2023-04-01T11:13:02;98189.49;;;13.28;44.58
74881;BME280;63427;49.654;6.596;2023-04-01T11:15:35;98194.62;;;12.46;46.06
74881;BME280;63427;49.654;6.596;2023-04-01T11:22:46;98199.92;;;12.43;46.52
74881;BME280;63427;49.654;6.596;2023-04-01T11:30:02;98204.85;;;12.63;46.35
74881;BME280;63427;49.654;6.596;2023-04-01T11:32:29;98202.35;;;12.35;46.77
74881;BME280;63427;49.654;6.596;2023-04-01T11:34:50;98207.04;;;12.76;46.18
74881;BME280;63427;49.654;6.596;2023-04-01T11:37:16;98208.40;;;12.60;46.59
74881;BME280;63427;49.654;6.596;2023-04-01T11:39:38;98207.49;;;12.49;46.63
74881;BME280;63427;49.654;6.596;2023-04-01T11:42:05;98212.46;;;12.18;47.84
74881;BME280;63427;49.654;6.596;2023-04-01T11:44:25;98212.03;;;12.57;46.52
74881;BME280;63427;49.654;6.596;2023-04-01T11:49:25;98218.80;;;12.95;45.50
74881;BME280;63427;49.654;6.596;2023-04-01T11:51:53;98224.53;;;12.97;45.12
74881;BME280;63427;49.654;6.596;2023-04-01T11:54:15;98230.32;;;12.48;45.76
74881;BME280;63427;49.654;6.596;2023-04-01T11:56:43;98233.81;;;12.68;45.30
74881;BME280;63427;49.654;6.596;2023-04-01T12:01:26;98239.40;;;13.22;44.36
74881;BME280;63427;49.654;6.596;2023-04-01T12:06:16;98248.54;;;13.03;45.05
74881;BME280;63427;49.654;6.596;2023-04-01T12:08:44;98254.43;;;12.65;46.66
74881;BME280;63427;49.654;6.596;2023-04-01T12:11:11;98254.53;;;12.57;45.83
74881;BME280;63427;49.654;6.596;2023-04-01T12:13:35;98263.37;;;12.98;45.75
74881;BME280;63427;49.654;6.596;2023-04-01T12:16:04;98263.81;;;12.98;45.56
74881;BME280;63427;49.654;6.596;2023-04-01T12:18:24;98268.81;;;12.88;45.16
74881;BME280;63427;49.654;6.596;2023-04-01T12:20:49;98265.82;;;12.68;45.02
74881;BME280;63427;49.654;6.596;2023-04-01T12:23:23;98263.95;;;13.32;43.71
74881;BME280;63427;49.654;6.596;2023-04-01T12:28:10;98272.12;;;13.21;44.34
74881;BME280;63427;49.654;6.596;2023-04-01T12:30:35;98267.09;;;13.32;43.90
74881;BME280;63427;49.654;6.596;2023-04-01T12:33:02;98267.81;;;13.43;43.87
74881;BME280;63427;49.654;6.596;2023-04-01T12:35:21;98275.49;;;14.16;43.46
74881;BME280;63427;49.654;6.596;2023-04-01T12:37:49;98269.30;;;13.85;42.29
74881;BME280;63427;49.654;6.596;2023-04-01T12:40:24;98275.21;;;14.12;43.34
74881;BME280;63427;49.654;6.596;2023-04-01T12:42:46;98282.57;;;14.36;42.37
74881;BME280;63427;49.654;6.596;2023-04-01T12:45:08;98269.86;;;14.69;42.43
74881;BME280;63427;49.654;6.596;2023-04-01T12:49:57;98285.06;;;13.71;43.52
74881;BME280;63427;49.654;6.596;2023-04-01T12:52:20;98286.29;;;14.06;43.92
74881;BME280;63427;49.654;6.596;2023-04-01T12:57:21;98284.93;;;14.52;43.15
74881;BME280;63427;49.654;6.596;2023-04-01T12:59:41;98285.77;;;14.83;42.16
74881;BME280;63427;49.654;6.596;2023-04-01T13:02:02;98286.85;;;14.37;42.67
74881;BME280;63427;49.654;6.596;2023-04-01T13:04:39;98290.06;;;13.80;43.43
74881;BME280;63427;49.654;6.596;2023-04-01T13:06:58;98289.77;;;13.13;44.06
74881;BME280;63427;49.654;6.596;2023-04-01T13:09:21;98294.95;;;12.72;45.26
74881;BME280;63427;49.654;6.596;2023-04-01T13:11:48;98302.61;;;12.74;45.68
74881;BME280;63427;49.654;6.596;2023-04-01T13:16:30;98313.37;;;13.00;45.37
74881;BME280;63427;49.654;6.596;2023-04-01T13:19:00;98314.89;;;13.06;45.34
74881;BME280;63427;49.654;6.596;2023-04-01T13:21:28;98314.76;;;13.12;45.53
74881;BME280;63427;49.654;6.596;2023-04-01T13:23:54;98320.61;;;13.34;44.06
74881;BME280;63427;49.654;6.596;2023-04-01T13:26:18;98324.37;;;13.67;44.34
74881;BME280;63427;49.654;6.596;2023-04-01T13:28:39;98327.21;;;13.38;44.16
74881;BME280;63427;49.654;6.596;2023-04-01T13:31:05;98325.93;;;13.92;43.54
74881;BME280;63427;49.654;6.596;2023-04-01T13:33:31;98325.53;;;14.01;42.77
74881;BME280;63427;49.654;6.596;2023-04-01T13:35:59;98326.39;;;13.11;45.06
74881;BME280;63427;49.654;6.596;2023-04-01T13:40:49;98336.79;;;12.56;45.99
74881;BME280;63427;49.654;6.596;2023-04-01T13:43:14;98338.90;;;12.49;46.47
74881;BME280;63427;49.654;6.596;2023-04-01T13:45:41;98345.78;;;12.58;46.79
74881;BME280;63427;49.654;6.596;2023-04-01T13:50:37;98343.91;;;13.14;45.70
74881;BME280;63427;49.654;6.596;2023-04-01T13:53:05;98344.57;;;12.98;45.17
74881;BME280;63427;49.654;6.596;2023-04-01T13:55:26;98343.18;;;13.48;44.87
74881;BME280;63427;49.654;6.596;2023-04-01T13:57:53;98346.22;;;13.57;44.63
74881;BME280;63427;49.654;6.596;2023-04-01T14:00:19;98343.58;;;13.41;44.67
74881;BME280;63427;49.654;6.596;2023-04-01T14:02:46;98344.67;;;13.66;44.41
74881;BME280;63427;49.654;6.596;2023-04-01T14:05:11;98347.90;;;13.51;44.27
74881;BME280;63427;49.654;6.596;2023-04-01T14:07:33;98343.40;;;13.18;44.06
74881;BME280;63427;49.654;6.596;2023-04-01T14:09:59;98343.87;;;13.44;44.33
74881;BME280;63427;49.654;6.596;2023-04-01T14:12:21;98349.95;;;13.55;44.42
74881;BME280;63427;49.654;6.596;2023-04-01T14:14:53;98344.80;;;13.37;43.13
74881;BME280;63427;49.654;6.596;2023-04-01T14:17:14;98355.69;;;12.59;45.14
74881;BME280;63427;49.654;6.596;2023-04-01T14:19:48;98352.43;;;12.71;45.01